createdAt,value
2019-03-31T00:01:35.306Z,17.80
2019-03-31T00:04:05.223Z,18.13
2019-03-31T00:06:35.131Z,17.73
2019-03-31T00:09:07.226Z,17.03
2019-03-31T00:11:37.230Z,18.00
2019-03-31T00:14:07.202Z,18.90
2019-03-31T00:16:37.009Z,21.97
2019-03-31T00:19:06.784Z,18.10
2019-03-31T00:21:36.563Z,20.53
2019-03-31T00:24:06.336Z,21.53
2019-03-31T00:26:36.159Z,21.27
2019-03-31T00:29:06.147Z,18.13
2019-03-31T00:31:35.940Z,27.60
2019-03-31T00:34:05.639Z,17.90
2019-03-31T00:36:35.355Z,17.90
2019-03-31T00:39:08.445Z,20.57
2019-03-31T00:41:38.366Z,18.80
2019-03-31T00:44:08.068Z,25.70
2019-03-31T00:46:37.866Z,17.40
2019-03-31T00:49:07.597Z,21.07
2019-03-31T00:51:37.516Z,23.27
2019-03-31T00:54:07.222Z,18.90
2019-03-31T00:56:37.055Z,20.47
2019-03-31T00:59:06.786Z,17.63
2019-03-31T01:01:54.701Z,18.03
2019-03-31T01:04:28.878Z,24.13
2019-03-31T01:06:59.190Z,20.90
2019-03-31T01:09:32.253Z,24.30
2019-03-31T01:12:04.110Z,18.07
2019-03-31T01:14:33.968Z,22.67
2019-03-31T01:17:06.548Z,17.77
2019-03-31T01:19:37.229Z,21.17
2019-03-31T01:22:07.035Z,18.77
2019-03-31T01:24:36.875Z,15.90
2019-03-31T01:27:09.530Z,19.93
2019-03-31T01:29:39.480Z,18.60
2019-03-31T01:32:09.267Z,18.27
2019-03-31T01:34:39.001Z,18.10
2019-03-31T01:37:08.753Z,19.50
2019-03-31T01:39:38.665Z,19.87
2019-03-31T01:42:08.483Z,28.10
2019-03-31T01:44:38.163Z,16.03
2019-03-31T01:47:08.077Z,16.57
2019-03-31T01:49:37.819Z,20.37
2019-03-31T01:52:07.566Z,24.40
2019-03-31T01:54:37.333Z,21.27
2019-03-31T01:57:07.103Z,18.20
2019-03-31T01:59:36.911Z,23.63
2019-03-31T02:02:08.589Z,15.90
2019-03-31T02:04:38.401Z,21.60
2019-03-31T02:07:08.981Z,15.23
2019-03-31T02:09:38.785Z,19.37
2019-03-31T02:12:08.623Z,22.40
2019-03-31T02:14:38.302Z,28.43
2019-03-31T02:17:08.128Z,18.10
2019-03-31T02:19:37.814Z,18.70
2019-03-31T02:22:07.555Z,21.00
2019-03-31T02:24:37.297Z,22.43
2019-03-31T02:27:07.072Z,20.53
2019-03-31T02:29:36.828Z,19.50
2019-03-31T02:32:22.460Z,18.07
2019-03-31T02:34:38.126Z,19.60
2019-03-31T02:37:07.848Z,19.87
2019-03-31T02:39:37.540Z,17.67
2019-03-31T02:42:07.271Z,18.87
2019-03-31T02:44:36.972Z,17.33
2019-03-31T02:47:06.739Z,18.30
2019-03-31T02:49:36.434Z,28.57
2019-03-31T02:52:06.109Z,16.33
2019-03-31T02:54:35.817Z,19.47
2019-03-31T02:57:06.769Z,19.77
2019-03-31T02:59:38.040Z,19.90
2019-03-31T03:02:09.120Z,17.00
2019-03-31T03:04:41.184Z,17.30
2019-03-31T03:07:12.865Z,17.50
2019-03-31T03:09:44.789Z,17.10
2019-03-31T03:12:16.345Z,17.40
2019-03-31T03:14:47.686Z,19.00
2019-03-31T03:17:17.480Z,17.40
2019-03-31T03:19:47.194Z,18.20
2019-03-31T03:22:16.913Z,23.63
2019-03-31T03:24:46.704Z,17.70
2019-03-31T03:27:16.506Z,14.20
2019-03-31T03:29:46.259Z,19.47
2019-03-31T03:32:16.079Z,18.47
2019-03-31T03:34:45.886Z,17.47
2019-03-31T03:37:15.681Z,16.83
2019-03-31T03:39:45.380Z,20.20
2019-03-31T03:42:15.267Z,17.90
2019-03-31T03:44:45.080Z,19.50
2019-03-31T03:47:14.806Z,17.87
2019-03-31T03:49:44.537Z,17.20
2019-03-31T03:52:14.235Z,15.20
2019-03-31T03:54:45.018Z,31.77
2019-03-31T03:57:14.789Z,21.30
2019-03-31T03:59:44.578Z,19.23
2019-03-31T04:02:14.464Z,23.13
2019-03-31T04:04:44.160Z,20.57
2019-03-31T04:07:13.957Z,19.00
2019-03-31T04:09:43.753Z,19.50
2019-03-31T04:12:13.485Z,17.80
2019-03-31T04:14:43.277Z,20.60
2019-03-31T04:17:13.012Z,20.10
2019-03-31T04:19:42.743Z,19.10
2019-03-31T04:22:12.428Z,20.73
2019-03-31T04:24:42.167Z,25.67
2019-03-31T04:27:11.876Z,25.50
2019-03-31T04:29:41.626Z,20.00
2019-03-31T04:32:11.398Z,19.43
2019-03-31T04:34:41.186Z,21.77
2019-03-31T04:37:11.006Z,17.47
2019-03-31T04:39:40.861Z,19.07
2019-03-31T04:42:10.590Z,22.30
2019-03-31T04:44:40.377Z,19.97
2019-03-31T04:47:10.190Z,20.67
2019-03-31T04:49:39.957Z,19.27
2019-03-31T04:52:09.755Z,22.60
2019-03-31T04:54:39.529Z,19.80
2019-03-31T04:57:09.223Z,22.70
2019-03-31T04:59:39.055Z,18.93
2019-03-31T05:02:08.826Z,20.43
2019-03-31T05:04:38.514Z,20.63
2019-03-31T05:07:08.296Z,16.63
2019-03-31T05:09:38.022Z,20.23
2019-03-31T05:12:07.720Z,18.70
2019-03-31T05:14:37.504Z,20.73
2019-03-31T05:17:07.213Z,22.23
2019-03-31T05:19:36.973Z,19.40
2019-03-31T05:22:06.876Z,17.90
2019-03-31T05:24:36.772Z,24.00
2019-03-31T05:27:06.624Z,15.73
2019-03-31T05:29:36.417Z,18.17
2019-03-31T05:32:06.137Z,22.13
2019-03-31T05:34:35.860Z,21.07
2019-03-31T05:37:05.558Z,22.90
2019-03-31T05:39:35.368Z,20.00
2019-03-31T05:42:05.225Z,22.87
2019-03-31T05:44:34.912Z,26.33
2019-03-31T05:47:05.729Z,25.33
2019-03-31T05:49:35.485Z,20.47
2019-03-31T05:52:05.657Z,20.93
2019-03-31T05:54:35.392Z,25.17
2019-03-31T05:57:22.818Z,20.20
2019-03-31T05:59:52.953Z,20.27
2019-03-31T06:02:22.816Z,21.70
2019-03-31T06:04:52.534Z,29.83
2019-03-31T06:07:22.432Z,23.37
2019-03-31T06:09:52.218Z,26.00
2019-03-31T06:12:22.059Z,22.83
2019-03-31T06:14:51.896Z,19.87
2019-03-31T06:17:21.629Z,23.20
2019-03-31T06:19:51.448Z,26.20
2019-03-31T06:22:21.229Z,24.33
2019-03-31T06:24:50.945Z,20.03
2019-03-31T06:27:20.752Z,21.07
2019-03-31T06:29:50.525Z,19.10
2019-03-31T06:32:20.243Z,20.97
2019-03-31T06:34:49.993Z,21.20
2019-03-31T06:37:19.725Z,20.47
2019-03-31T06:39:49.500Z,18.73
2019-03-31T06:42:19.323Z,23.93
2019-03-31T06:44:49.004Z,20.87
2019-03-31T06:47:18.779Z,23.00
2019-03-31T06:49:48.486Z,22.43
2019-03-31T06:52:18.221Z,20.57
2019-03-31T06:54:48.069Z,20.13
2019-03-31T06:57:17.866Z,20.07
2019-03-31T06:59:47.567Z,19.33
2019-03-31T07:02:17.416Z,20.57
2019-03-31T07:05:00.220Z,18.87
2019-03-31T07:07:18.660Z,18.73
2019-03-31T07:09:48.473Z,25.73
2019-03-31T07:12:18.187Z,21.10
2019-03-31T07:14:48.034Z,18.33
2019-03-31T07:17:17.748Z,19.80
2019-03-31T07:19:47.567Z,23.30
2019-03-31T07:22:17.344Z,21.73
2019-03-31T07:24:47.138Z,19.80
2019-03-31T07:27:16.904Z,19.30
2019-03-31T07:29:46.696Z,20.60
2019-03-31T07:32:16.514Z,18.00
2019-03-31T07:34:46.394Z,20.63
2019-03-31T07:37:16.078Z,18.77
2019-03-31T07:39:46.640Z,18.80
2019-03-31T07:42:16.597Z,17.23
2019-03-31T07:44:46.493Z,15.53
2019-03-31T07:47:16.225Z,17.90
2019-03-31T07:49:46.022Z,18.77
2019-03-31T07:52:15.887Z,21.70
2019-03-31T07:54:45.625Z,21.10
2019-03-31T07:57:15.416Z,20.27
2019-03-31T07:59:45.265Z,19.00
2019-03-31T08:02:15.044Z,20.80
2019-03-31T08:04:44.788Z,17.33
2019-03-31T08:07:14.515Z,17.60
2019-03-31T08:09:44.292Z,15.67
2019-03-31T08:12:14.063Z,24.83
2019-03-31T08:14:43.795Z,17.00
2019-03-31T08:17:13.513Z,17.20
2019-03-31T08:19:43.309Z,22.60
2019-03-31T08:22:13.050Z,18.57
2019-03-31T08:24:45.561Z,20.77
2019-03-31T08:27:16.571Z,20.83
2019-03-31T08:29:55.385Z,22.90
2019-03-31T08:32:21.309Z,19.60
2019-03-31T08:34:51.121Z,19.47
2019-03-31T08:37:21.017Z,18.47
2019-03-31T08:39:50.722Z,18.03
2019-03-31T08:42:20.503Z,18.63
2019-03-31T08:44:50.240Z,18.47
2019-03-31T08:47:20.509Z,18.50
2019-03-31T08:49:50.231Z,20.10
2019-03-31T08:52:20.013Z,22.70
2019-03-31T08:54:49.745Z,17.13
2019-03-31T08:57:19.472Z,20.13
2019-03-31T08:59:49.240Z,17.83
2019-03-31T09:02:31.160Z,25.03
2019-03-31T09:05:00.965Z,22.20
2019-03-31T09:07:30.700Z,19.63
2019-03-31T09:10:00.502Z,21.67
2019-03-31T09:12:30.378Z,34.43
2019-03-31T09:15:00.346Z,27.43
2019-03-31T09:17:30.132Z,22.23
2019-03-31T09:19:59.837Z,23.97
2019-03-31T09:22:29.595Z,22.77
2019-03-31T09:24:59.323Z,25.67
2019-03-31T09:27:29.105Z,25.83
2019-03-31T09:29:58.826Z,32.43
2019-03-31T09:32:28.601Z,23.37
2019-03-31T09:34:58.353Z,24.47
2019-03-31T09:37:28.271Z,25.20
2019-03-31T09:39:57.994Z,21.80
2019-03-31T09:42:27.778Z,19.33
2019-03-31T09:44:57.468Z,25.20
2019-03-31T09:47:28.717Z,23.03
2019-03-31T09:49:58.546Z,25.00
2019-03-31T09:52:28.244Z,28.30
2019-03-31T09:54:57.974Z,22.13
2019-03-31T09:57:27.813Z,24.90
2019-03-31T09:59:57.556Z,29.93
2019-03-31T10:02:27.340Z,26.83
2019-03-31T10:04:57.281Z,26.10
2019-03-31T10:07:27.005Z,25.60
2019-03-31T10:09:57.148Z,27.50
2019-03-31T10:12:26.896Z,24.73
2019-03-31T10:14:56.628Z,29.53
2019-03-31T10:17:26.408Z,26.93
2019-03-31T10:19:56.147Z,25.97
2019-03-31T10:22:25.821Z,28.10
2019-03-31T10:24:55.569Z,24.57
2019-03-31T10:27:25.269Z,27.53
2019-03-31T10:29:55.018Z,27.63
2019-03-31T10:32:24.733Z,29.03
2019-03-31T10:34:54.496Z,31.13
2019-03-31T10:37:24.269Z,30.17
2019-03-31T10:39:54.020Z,25.47
2019-03-31T10:42:23.716Z,27.17
2019-03-31T10:44:53.531Z,35.23
2019-03-31T10:47:23.328Z,26.40
2019-03-31T10:49:53.149Z,31.47
2019-03-31T10:52:22.847Z,30.40
2019-03-31T10:54:52.669Z,27.07
2019-03-31T10:57:22.392Z,26.87
2019-03-31T10:59:52.126Z,31.47
2019-03-31T11:02:21.958Z,30.83
2019-03-31T11:04:51.790Z,33.67
2019-03-31T11:07:21.646Z,31.70
2019-03-31T11:09:51.416Z,31.40
2019-03-31T11:12:21.132Z,25.53
2019-03-31T11:14:51.077Z,27.93
2019-03-31T11:17:20.800Z,30.10
2019-03-31T11:19:50.629Z,28.20
2019-03-31T11:22:42.337Z,28.10
2019-03-31T11:25:20.719Z,27.27
2019-03-31T11:27:44.065Z,18.17
2019-03-31T11:30:14.150Z,15.63
2019-03-31T11:32:44.044Z,19.33
2019-03-31T11:35:14.040Z,16.13
2019-03-31T11:37:43.902Z,16.40
2019-03-31T11:40:13.747Z,13.43
2019-03-31T11:42:43.658Z,11.70
2019-03-31T11:45:13.449Z,13.50
2019-03-31T11:47:44.722Z,9.60
2019-03-31T11:50:15.040Z,11.53
2019-03-31T11:52:44.821Z,8.50
2019-03-31T11:55:14.605Z,10.70
2019-03-31T11:57:44.409Z,10.00
2019-03-31T12:00:17.292Z,15.03
2019-03-31T12:02:47.406Z,14.00
2019-03-31T12:05:17.400Z,15.57
2019-03-31T12:07:47.571Z,10.93
2019-03-31T12:10:19.811Z,14.20
2019-03-31T12:12:49.079Z,20.23
2019-03-31T12:15:18.873Z,18.77
2019-03-31T12:17:51.678Z,15.10
2019-03-31T12:20:21.734Z,17.40
2019-03-31T12:22:51.564Z,19.00
2019-03-31T12:25:21.330Z,15.40
2019-03-31T12:27:51.156Z,18.10
2019-03-31T12:30:28.066Z,15.13
2019-03-31T12:32:58.304Z,21.50
2019-03-31T12:35:28.004Z,16.93
2019-03-31T12:37:57.836Z,15.33
2019-03-31T12:40:33.452Z,20.90
2019-03-31T12:43:03.590Z,17.80
2019-03-31T12:45:33.332Z,23.00
2019-03-31T12:48:03.168Z,19.73
2019-03-31T12:50:32.909Z,19.43
2019-03-31T12:53:02.714Z,16.23
2019-03-31T12:55:32.468Z,18.20
2019-03-31T12:58:03.353Z,14.80
2019-03-31T13:00:33.123Z,17.43
2019-03-31T13:03:02.956Z,18.60
2019-03-31T13:05:32.777Z,21.50
2019-03-31T13:08:02.613Z,18.10
2019-03-31T13:10:32.407Z,26.20
2019-03-31T13:13:02.284Z,18.53
2019-03-31T13:15:32.068Z,19.40
2019-03-31T13:18:01.927Z,17.17
2019-03-31T13:20:31.633Z,15.07
2019-03-31T13:23:01.413Z,13.67
2019-03-31T13:25:31.176Z,13.17
2019-03-31T13:28:01.028Z,10.00
2019-03-31T13:30:30.803Z,11.30
2019-03-31T13:33:00.504Z,9.90
2019-03-31T13:35:30.431Z,10.10
2019-03-31T13:38:10.828Z,13.73
2019-03-31T13:40:31.736Z,13.30
2019-03-31T13:43:01.491Z,12.07
2019-03-31T13:45:31.247Z,14.53
2019-03-31T13:48:01.036Z,9.70
2019-03-31T13:50:30.934Z,13.00
2019-03-31T13:53:00.681Z,10.80
2019-03-31T13:55:30.565Z,9.73
2019-03-31T13:58:02.908Z,9.63
2019-03-31T14:00:37.195Z,11.40
2019-03-31T14:03:07.132Z,10.10
2019-03-31T14:05:36.951Z,10.87
2019-03-31T14:08:07.061Z,10.80
2019-03-31T14:10:36.904Z,8.90
2019-03-31T14:13:06.768Z,10.50
2019-03-31T14:15:36.557Z,12.10
2019-03-31T14:18:06.485Z,10.17
2019-03-31T14:20:36.205Z,12.20
2019-03-31T14:23:05.996Z,13.77
2019-03-31T14:25:36.054Z,14.40
2019-03-31T14:28:05.757Z,14.90
2019-03-31T14:30:35.572Z,10.17
2019-03-31T14:33:05.622Z,9.73
2019-03-31T14:35:38.084Z,9.60
2019-03-31T14:38:06.934Z,11.90
2019-03-31T14:40:36.699Z,8.80
2019-03-31T14:43:06.419Z,8.77
2019-03-31T14:45:37.459Z,10.53
2019-03-31T14:48:07.583Z,7.73
2019-03-31T14:50:38.794Z,11.00
2019-03-31T14:53:08.915Z,7.57
2019-03-31T14:55:38.790Z,10.03
2019-03-31T14:58:08.774Z,13.03
2019-03-31T15:00:38.741Z,9.80
2019-03-31T15:03:08.699Z,9.10
2019-03-31T15:05:38.480Z,10.50
2019-03-31T15:08:08.200Z,7.13
2019-03-31T15:10:38.018Z,7.03
2019-03-31T15:13:07.755Z,5.60
2019-03-31T15:15:37.541Z,6.00
2019-03-31T15:18:07.342Z,7.70
2019-03-31T15:20:37.068Z,7.73
2019-03-31T15:23:06.752Z,12.00
2019-03-31T15:25:36.526Z,10.23
2019-03-31T15:28:06.318Z,6.40
2019-03-31T15:30:36.385Z,7.93
2019-03-31T15:33:06.164Z,6.57
2019-03-31T15:35:37.867Z,7.33
2019-03-31T15:38:08.956Z,5.90
2019-03-31T15:40:38.793Z,7.23
2019-03-31T15:43:08.628Z,7.60
2019-03-31T15:45:38.412Z,7.97
2019-03-31T15:48:08.293Z,7.87
2019-03-31T15:50:37.994Z,9.30
2019-03-31T15:53:07.873Z,10.43
2019-03-31T15:55:37.628Z,7.50
2019-03-31T15:58:08.266Z,6.00
2019-03-31T16:00:38.053Z,7.97
2019-03-31T16:03:07.892Z,7.13
2019-03-31T16:05:37.710Z,10.03
2019-03-31T16:08:06.993Z,4.53
2019-03-31T16:10:36.170Z,6.17
2019-03-31T16:13:05.504Z,7.57
2019-03-31T16:15:34.803Z,6.53
2019-03-31T16:18:04.073Z,11.83
2019-03-31T16:20:33.441Z,5.80
2019-03-31T16:23:02.712Z,7.73
2019-03-31T16:25:34.630Z,9.00
2019-03-31T16:28:03.900Z,10.77
2019-03-31T16:30:34.473Z,6.13
2019-03-31T16:33:06.866Z,8.13
2019-03-31T16:35:34.705Z,6.40
2019-03-31T16:38:03.914Z,6.50
2019-03-31T16:40:33.222Z,12.80
2019-03-31T16:43:21.561Z,5.57
2019-03-31T16:45:50.963Z,9.83
2019-03-31T16:48:20.152Z,6.67
2019-03-31T16:50:49.500Z,5.70
2019-03-31T16:53:18.716Z,6.03
2019-03-31T16:55:47.927Z,7.33
2019-03-31T16:58:17.187Z,4.60
2019-03-31T17:00:46.518Z,7.00
2019-03-31T17:03:18.244Z,4.67
2019-03-31T17:05:46.693Z,6.80
2019-03-31T17:08:16.018Z,5.13
2019-03-31T17:10:45.260Z,6.17
2019-03-31T17:13:14.561Z,10.87
2019-03-31T17:15:43.830Z,5.20
2019-03-31T17:18:13.180Z,7.70
2019-03-31T17:20:42.668Z,5.50
2019-03-31T17:23:11.880Z,6.83
2019-03-31T17:25:41.150Z,6.17
2019-03-31T17:28:11.414Z,6.90
2019-03-31T17:30:40.653Z,7.60
2019-03-31T17:33:09.965Z,6.80
2019-03-31T17:35:39.197Z,6.87
2019-03-31T17:38:08.417Z,8.83
2019-03-31T17:40:37.669Z,5.70
2019-03-31T17:43:07.005Z,12.37
2019-03-31T17:45:36.168Z,5.40
2019-03-31T17:48:05.477Z,6.13
2019-03-31T17:50:34.744Z,7.27
2019-03-31T17:53:04.197Z,7.63
2019-03-31T17:55:33.599Z,5.33
2019-03-31T17:58:02.798Z,6.60
2019-03-31T18:00:32.020Z,4.80
2019-03-31T18:03:01.317Z,5.87
2019-03-31T18:05:30.568Z,6.43
2019-03-31T18:07:59.878Z,9.30
2019-03-31T18:10:29.182Z,6.83
2019-03-31T18:12:58.332Z,5.77
2019-03-31T18:15:27.643Z,8.40
2019-03-31T18:17:57.006Z,5.83
2019-03-31T18:20:26.226Z,5.50
2019-03-31T18:22:55.454Z,7.90
2019-03-31T18:25:24.818Z,6.73
2019-03-31T18:27:54.176Z,5.77
2019-03-31T18:30:23.675Z,8.73
2019-03-31T18:32:52.941Z,7.60
2019-03-31T18:35:22.161Z,7.40
2019-03-31T18:37:51.554Z,6.17
2019-03-31T18:40:34.032Z,8.43
2019-03-31T18:42:51.837Z,6.93
2019-03-31T18:45:21.129Z,4.73
2019-03-31T18:47:50.396Z,7.60
2019-03-31T18:50:19.694Z,5.30
2019-03-31T18:52:49.035Z,8.83
2019-03-31T18:55:31.318Z,5.27
2019-03-31T18:58:25.580Z,6.07
2019-03-31T19:01:04.589Z,6.60
2019-03-31T19:03:55.670Z,6.90
2019-03-31T19:06:43.875Z,7.70
2019-03-31T19:09:36.005Z,9.20
2019-03-31T19:12:24.228Z,7.70
2019-03-31T19:15:07.060Z,9.40
2019-03-31T19:17:53.859Z,8.50
2019-03-31T19:20:41.314Z,7.13
2019-03-31T19:23:23.417Z,10.10
2019-03-31T19:26:10.632Z,8.97
2019-03-31T19:29:17.637Z,11.80
2019-03-31T19:32:11.875Z,9.73
2019-03-31T19:35:03.255Z,12.20
2019-03-31T19:38:09.933Z,12.43
2019-03-31T19:41:04.012Z,12.93
2019-03-31T19:43:44.488Z,10.00
2019-03-31T19:46:31.708Z,13.37
2019-03-31T19:49:22.807Z,10.90
2019-03-31T19:52:23.208Z,11.43
2019-03-31T19:55:02.851Z,13.13
2019-03-31T19:57:46.725Z,14.97
2019-03-31T20:00:32.854Z,20.73
2019-03-31T20:03:23.386Z,17.23
2019-03-31T20:06:26.858Z,12.60
2019-03-31T20:09:19.005Z,13.97
2019-03-31T20:12:06.201Z,13.73
2019-03-31T20:14:54.913Z,9.73
2019-03-31T20:17:41.879Z,17.30
2019-03-31T20:20:20.084Z,20.20
2019-03-31T20:23:15.303Z,13.10
2019-03-31T20:26:15.649Z,15.63
2019-03-31T20:28:52.765Z,14.63
2019-03-31T20:31:47.073Z,15.90
2019-03-31T20:34:27.656Z,17.20
2019-03-31T20:37:10.501Z,22.63
2019-03-31T20:39:57.359Z,16.27
2019-03-31T20:42:54.733Z,16.30
2019-03-31T20:45:24.015Z,18.33
2019-03-31T20:47:54.453Z,21.20
2019-03-31T20:50:23.720Z,25.33
2019-03-31T20:52:52.963Z,18.03
2019-03-31T20:55:22.241Z,20.00
2019-03-31T20:57:51.526Z,24.20
2019-03-31T21:00:20.929Z,20.90
2019-03-31T21:02:50.236Z,22.83
2019-03-31T21:05:19.500Z,20.67
2019-03-31T21:07:48.834Z,21.50
2019-03-31T21:10:18.149Z,20.30
2019-03-31T21:12:47.419Z,21.37
2019-03-31T21:15:16.663Z,27.53
2019-03-31T21:17:45.982Z,20.67
2019-03-31T21:20:15.227Z,23.70
2019-03-31T21:22:45.873Z,20.30
2019-03-31T21:25:15.251Z,23.83
2019-03-31T21:27:44.432Z,21.03
2019-03-31T21:30:13.696Z,24.33
2019-03-31T21:32:42.865Z,22.87
2019-03-31T21:35:12.254Z,25.83
2019-03-31T21:37:41.541Z,19.53
2019-03-31T21:40:11.004Z,23.37
2019-03-31T21:42:40.301Z,24.37
2019-03-31T21:45:09.649Z,23.97
2019-03-31T21:47:38.916Z,25.00
2019-03-31T21:50:08.579Z,28.33
2019-03-31T21:52:37.838Z,24.20
2019-03-31T21:55:07.183Z,25.13
2019-03-31T21:57:36.361Z,28.37
2019-03-31T22:00:08.330Z,26.70
2019-03-31T22:02:37.541Z,27.40
2019-03-31T22:05:08.031Z,25.60
2019-03-31T22:07:37.405Z,23.77
2019-03-31T22:10:07.080Z,26.20
2019-03-31T22:12:36.245Z,28.30
2019-03-31T22:15:06.243Z,28.90
2019-03-31T22:17:35.543Z,28.90
2019-03-31T22:20:05.206Z,29.40
2019-03-31T22:22:34.448Z,25.80
2019-03-31T22:25:03.736Z,31.20
2019-03-31T22:27:32.967Z,31.60
2019-03-31T22:30:02.164Z,28.27
2019-03-31T22:32:31.369Z,31.97
2019-03-31T22:35:00.553Z,29.70
2019-03-31T22:37:29.813Z,33.00
2019-03-31T22:39:59.041Z,37.73
2019-03-31T22:42:28.293Z,33.23
2019-03-31T22:44:57.524Z,36.30
2019-03-31T22:47:26.696Z,29.80
2019-03-31T22:49:55.952Z,33.13
2019-03-31T22:52:25.212Z,29.90
2019-03-31T22:54:54.441Z,35.10
2019-03-31T22:57:23.852Z,43.97
2019-03-31T22:59:53.075Z,30.73
2019-03-31T23:02:22.356Z,34.43
2019-03-31T23:04:51.630Z,30.57
2019-03-31T23:07:22.116Z,34.80
2019-03-31T23:09:51.428Z,34.57
2019-03-31T23:12:20.590Z,35.80
2019-03-31T23:14:49.799Z,38.37
2019-03-31T23:17:18.998Z,39.53
2019-03-31T23:19:48.285Z,40.23
2019-03-31T23:22:17.539Z,34.43
2019-03-31T23:24:46.723Z,40.30
2019-03-31T23:29:47.851Z,37.17
2019-03-31T23:32:17.128Z,38.53
2019-03-31T23:34:48.784Z,38.10
2019-03-31T23:37:20.885Z,38.13
2019-03-31T23:39:52.346Z,34.33
2019-03-31T23:42:22.923Z,44.67
2019-03-31T23:44:52.521Z,37.27
2019-03-31T23:47:23.802Z,36.53
2019-03-31T23:49:53.478Z,41.07
2019-03-31T23:52:22.981Z,40.03
2019-03-31T23:54:54.280Z,38.63
2019-03-31T23:57:40.816Z,40.33
